Antero De Quental — CSKP — position and weather

sailwx.info

Track history (hours):
 
Tides and Currents Weather Stations Pressure Air Temp Water Temp Dewpoint Dewpoint Depression Visibility Wind Speed Wind Dir Waves Ship Positions

Antero De Quental

Last reported at 2018-Jul-20 20:21 UTC. Time now 2018-Jul-22 00:40 UTC.
Position N 38°39' W 009°05'.

Length 49 m; draft 1.9 m.

Type: Passenger vessel. MMSI: 263701460.

Date/timePositionNaut miles runAvg speedWind from/ knotsBaromVisibWave heightAir tempDewpointWater temp
2018-Jul-20 20:21N 38°39' W 009°05'2 6.7
2018-Jul-20 20:00N 38°40' W 009°07'0 0.3
2018-Jul-20 19:31N 38°40' W 009°07'2 4.6
2018-Jul-20 19:00N 38°39' W 009°05'2 3.9
2018-Jul-20 18:30N 38°40' W 009°07'1 1.6
2018-Jul-20 18:00N 38°40' W 009°06'3 6.5
2018-Jul-20 17:30N 38°42' W 009°08'4 8.3
2018-Jul-20 17:00N 38°39' W 009°05'3 6.9
2018-Jul-20 16:30N 38°42' W 009°08'2 3.6
2018-Jul-20 16:00N 38°40' W 009°07'0 0.8
2018-Jul-20 15:30N 38°40' W 009°07'2 4.7
2018-Jul-20 15:01N 38°39' W 009°05'0 0.0
2018-Jul-20 14:31N 38°39' W 009°05'3 6.4
2018-Jul-20 14:00N 38°41' W 009°08'2 4.8
2018-Jul-20 13:30N 38°39' W 009°06'3 5.0
2018-Jul-20 13:00N 38°41' W 009°08'2 4.8
2018-Jul-20 12:30N 38°40' W 009°06'1 2.0
2018-Jul-20 12:01N 38°39' W 009°05'0 0.1
2018-Jul-20 11:31N 38°39' W 009°05'0 0.0
2018-Jul-20 11:01N 38°39' W 009°05'0 0.0
2018-Jul-20 10:30N 38°39' W 009°05'0 0.1
2018-Jul-20 10:01N 38°39' W 009°05'3 6.8
2018-Jul-20 09:30N 38°41' W 009°08'3 5.9
2018-Jul-20 09:00N 38°39' W 009°05'1 1.2
2018-Jul-20 08:31N 38°39' W 009°05'4 7.9
2018-Jul-20 08:00N 38°42' W 009°08'2 4.7
2018-Jul-20 07:31N 38°40' W 009°07'1 2.1
2018-Jul-20 07:00N 38°39' W 009°06'3 6.7
2018-Jul-20 06:30N 38°42' W 009°08'4 8.3
2018-Jul-20 06:00N 38°39' W 009°05'4 7.2
2018-Jul-20 05:30N 38°42' W 009°08'3 6.7
2018-Jul-20 05:01N 38°39' W 009°05'3 6.9
2018-Jul-20 04:30N 38°42' W 009°08'4 7.4
2018-Jul-20 04:01N 38°39' W 009°05'0 0.0
2018-Jul-20 01:24N 38°39' W 009°05'410.3
2018-Jul-20 01:00N 38°42' W 009°08'4 8.3
2018-Jul-20 00:30N 38°39' W 009°05'4 8.4
2018-Jul-20 00:00N 38°42' W 009°08'4 8.3
2018-Jul-19 23:30N 38°39' W 009°05'4 8.4
2018-Jul-19 23:00N 38°42' W 009°08'4 8.3
2018-Jul-19 22:31N 38°39' W 009°05'3 6.5
2018-Jul-19 22:00N 38°41' W 009°08'2 4.8
2018-Jul-19 21:30N 38°39' W 009°06'2 4.9
2018-Jul-19 21:01N 38°42' W 009°08'3 5.1
2018-Jul-19 20:31N 38°39' W 009°06'1 1.8
2018-Jul-19 19:59N 38°39' W 009°05'0 0.0
2018-Jul-19 19:30N 38°39' W 009°05'4 8.4
2018-Jul-19 19:01N 38°42' W 009°08'4 8.3
2018-Jul-19 18:30N 38°39' W 009°05'3 6.9
2018-Jul-19 18:00N 38°42' W 009°08'2 3.9
2018-Jul-19 17:30N 38°40' W 009°07'1 2.2
2018-Jul-19 17:01N 38°39' W 009°06'4 7.0
2018-Jul-19 16:30N 38°42' W 009°08'4 8.3
2018-Jul-19 16:00N 38°39' W 009°05'0 0.0
2018-Jul-19 08:47N 38°39' W 009°05'0 0.4
2018-Jul-19 08:30N 38°39' W 009°05'3 6.3
2018-Jul-19 08:00N 38°41' W 009°08'3 6.4
2018-Jul-19 07:30N 38°39' W 009°05'4 8.4
2018-Jul-19 07:00N 38°42' W 009°08'4 8.4
2018-Jul-19 06:31N 38°39' W 009°05'3 6.4
2018-Jul-19 06:01N 38°41' W 009°08'3 6.1
2018-Jul-19 05:30N 38°39' W 009°05'0 0.0
2018-Jul-18 20:34N 38°39' W 009°05'0 0.0
2018-Jul-18 20:30N 38°39' W 009°05'4 8.3
2018-Jul-18 20:01N 38°42' W 009°08'4 8.3
2018-Jul-18 19:31N 38°39' W 009°05'2 3.2
2018-Jul-18 19:00N 38°40' W 009°07'1 2.5
2018-Jul-18 18:30N 38°41' W 009°08'1 2.4
2018-Jul-18 18:01N 38°40' W 009°07'0 0.9
2018-Jul-18 17:31N 38°40' W 009°06'3 6.3
2018-Jul-18 17:00N 38°42' W 009°08'4 8.4
2018-Jul-18 16:30N 38°39' W 009°05'4 8.4
2018-Jul-18 16:00N 38°42' W 009°08'4 7.5
2018-Jul-18 15:30N 38°39' W 009°06'2 4.4
2018-Jul-18 15:00N 38°41' W 009°07'3 5.5
2018-Jul-18 14:30N 38°39' W 009°05'0 0.0
2018-Jul-18 12:23N 38°39' W 009°05'411.0
2018-Jul-18 12:00N 38°42' W 009°08'4 8.3
2018-Jul-18 11:30N 38°39' W 009°05'1 0.7
2018-Jul-18 10:31N 38°39' W 009°06'1 1.2
2018-Jul-18 10:00N 38°39' W 009°05'0 0.0
2018-Jul-18 09:30N 38°39' W 009°05'4 8.0
2018-Jul-18 09:01N 38°42' W 009°08'4 8.0
2018-Jul-18 08:30N 38°39' W 009°05'4 8.5
2018-Jul-18 08:01N 38°42' W 009°08'4 7.9
2018-Jul-18 07:30N 38°39' W 009°05'2 4.0
2018-Jul-18 07:00N 38°40' W 009°07'0 0.7
2018-Jul-18 06:30N 38°40' W 009°07'1 2.6
2018-Jul-18 06:01N 38°39' W 009°06'1 1.1
2018-Jul-18 05:30N 38°39' W 009°05'0 0.0
2018-Jul-17 20:18N 38°39' W 009°05'2 6.5
2018-Jul-17 20:01N 38°40' W 009°07'1 1.3
2018-Jul-17 19:31N 38°40' W 009°08'3 5.0
2018-Jul-17 18:59N 38°39' W 009°05'2 4.2
2018-Jul-17 18:31N 38°40' W 009°07'1 1.4
2018-Jul-17 18:00N 38°40' W 009°06'3 6.1
2018-Jul-17 17:30N 38°42' W 009°08'4 8.3
2018-Jul-17 17:00N 38°39' W 009°05'4 7.4
2018-Jul-17 16:30N 38°42' W 009°08'2 4.2
2018-Jul-17 16:00N 38°40' W 009°07'1 1.5
2018-Jul-17 15:30N 38°41' W 009°07'3 5.2
2018-Jul-17 15:00N 38°39' W 009°05'0 0.0
2018-Jul-17 14:31N 38°39' W 009°05'3 6.7
2018-Jul-17 14:00N 38°41' W 009°08'2 5.0
2018-Jul-17 13:31N 38°39' W 009°06'2 4.8
2018-Jul-17 13:00N 38°41' W 009°08'3 5.6
2018-Jul-17 12:30N 38°39' W 009°05'1 1.1
2018-Jul-17 12:00N 38°39' W 009°05'0 0.0
2018-Jul-17 11:30N 38°39' W 009°05'0 0.0
2018-Jul-17 11:00N 38°39' W 009°05'0 0.0
2018-Jul-17 10:30N 38°39' W 009°05'0 0.0
2018-Jul-17 10:00N 38°39' W 009°05'3 6.8
2018-Jul-17 09:30N 38°42' W 009°08'3 5.4
2018-Jul-17 09:01N 38°39' W 009°06'1 1.9
2018-Jul-17 08:30N 38°39' W 009°05'4 8.2
2018-Jul-17 08:01N 38°42' W 009°08'2 4.5
2018-Jul-17 07:30N 38°40' W 009°07'1 2.3
2018-Jul-17 07:00N 38°39' W 009°06'3 6.7
2018-Jul-17 06:31N 38°42' W 009°08'4 8.3
2018-Jul-17 06:01N 38°39' W 009°05'3 6.7
2018-Jul-17 05:30N 38°41' W 009°08'3 6.1
2018-Jul-17 05:01N 38°39' W 009°05'3 6.7
2018-Jul-17 04:30N 38°42' W 009°08'4 7.3
2018-Jul-17 04:01N 38°39' W 009°05'0 0.0
2018-Jul-17 03:31N 38°39' W 009°05'0 0.0
2018-Jul-17 03:01N 38°39' W 009°05'0 0.0
2018-Jul-17 02:31N 38°39' W 009°05'0 0.0
2018-Jul-17 02:01N 38°39' W 009°05'0 0.0
2018-Jul-17 01:30N 38°39' W 009°05'4 8.4
2018-Jul-17 01:01N 38°42' W 009°08'4 8.1
2018-Jul-17 00:30N 38°39' W 009°05'0 0.0
2018-Jul-16 23:30N 38°39' W 009°05'4 8.3
2018-Jul-16 23:00N 38°42' W 009°08'4 8.3
2018-Jul-16 22:30N 38°39' W 009°05'3 6.7
2018-Jul-16 22:00N 38°41' W 009°08'2 4.9
2018-Jul-16 21:30N 38°39' W 009°06'2 4.8
2018-Jul-16 21:01N 38°41' W 009°08'2 4.8
2018-Jul-16 20:30N 38°39' W 009°06'1 2.0
2018-Jul-16 20:00N 38°39' W 009°05'0 0.0
2018-Jul-16 19:30N 38°39' W 009°05'4 8.4
2018-Jul-16 19:00N 38°42' W 009°08'4 8.3
2018-Jul-16 18:31N 38°39' W 009°05'4 7.6
2018-Jul-16 18:01N 38°42' W 009°08'2 4.5
2018-Jul-16 17:30N 38°40' W 009°07'1 1.6
2018-Jul-16 17:01N 38°40' W 009°06'3 6.1
2018-Jul-16 16:30N 38°42' W 009°08'4 8.6
2018-Jul-16 16:00N 38°39' W 009°05'0 0.0
2018-Jul-16 09:15N 38°39' W 009°05'0 0.4
2018-Jul-16 09:00N 38°39' W 009°05'0 0.1
2018-Jul-16 08:30N 38°39' W 009°05'4 7.8
2018-Jul-16 08:01N 38°42' W 009°08'2 4.3
2018-Jul-16 07:31N 38°40' W 009°07'1 1.9
2018-Jul-16 07:00N 38°40' W 009°06'3 6.6
2018-Jul-16 06:30N 38°42' W 009°08'4 8.3
2018-Jul-16 06:00N 38°39' W 009°05'4 7.1
2018-Jul-16 05:30N 38°42' W 009°08'4 7.1
2018-Jul-16 05:01N 38°39' W 009°05'4 7.5
2018-Jul-16 04:30N 38°42' W 009°08'4 7.6
2018-Jul-16 04:01N 38°39' W 009°05'0 0.0
2018-Jul-16 03:30N 38°39' W 009°05'0 0.0
2018-Jul-16 03:00N 38°39' W 009°05'0 0.0
2018-Jul-16 02:30N 38°39' W 009°05'0 0.0
2018-Jul-16 02:00N 38°39' W 009°05'0 0.0
2018-Jul-16 01:30N 38°39' W 009°05'4 8.3
2018-Jul-16 01:00N 38°42' W 009°08'4 8.3
2018-Jul-16 00:30N 38°39' W 009°05'4 8.3
2018-Jul-16 00:00N 38°42' W 009°08'4 8.3
2018-Jul-15 23:30N 38°39' W 009°05'4 8.3
2018-Jul-15 23:00N 38°42' W 009°08'4 8.3
2018-Jul-15 22:31N 38°39' W 009°05'3 6.6
2018-Jul-15 22:01N 38°41' W 009°08'2 4.8
2018-Jul-15 21:30N 38°39' W 009°06'3 5.3
2018-Jul-15 21:00N 38°42' W 009°08'2 4.9
2018-Jul-15 20:31N 38°40' W 009°06'2 4.7
2018-Jul-15 20:01N 38°41' W 009°08'3 5.1
2018-Jul-15 19:31N 38°39' W 009°06'1 1.8
2018-Jul-15 19:00N 38°39' W 009°05'3 6.4
2018-Jul-15 18:30N 38°41' W 009°08'2 4.4
2018-Jul-15 18:00N 38°40' W 009°06'3 5.1
2018-Jul-15 17:31N 38°42' W 009°08'3 5.1
2018-Jul-15 17:01N 38°40' W 009°06'2 4.6
2018-Jul-15 16:30N 38°41' W 009°08'3 4.9
2018-Jul-15 16:00N 38°39' W 009°06'3 6.0
2018-Jul-15 15:30N 38°42' W 009°08'3 5.7
2018-Jul-15 15:00N 38°39' W 009°06'3 5.9
2018-Jul-15 14:31N 38°42' W 009°08'3 6.5
2018-Jul-15 14:00N 38°39' W 009°05'0 0.9
2018-Jul-15 13:30N 38°39' W 009°05'0 0.0
2018-Jul-15 13:00N 38°39' W 009°05'0 0.0
2018-Jul-15 12:30N 38°39' W 009°05'3 6.5
2018-Jul-15 12:01N 38°41' W 009°08'3 5.2
2018-Jul-15 11:31N 38°39' W 009°06'3 6.1
2018-Jul-15 11:00N 38°42' W 009°08'3 6.6
2018-Jul-15 10:30N 38°39' W 009°05'0 0.9
2018-Jul-15 10:00N 38°39' W 009°05'0 0.0
2018-Jul-15 09:30N 38°39' W 009°05'0 0.0
2018-Jul-14 10:00N 38°39' W 009°05'3 6.4
2018-Jul-14 09:31N 38°41' W 009°08'2 5.0
2018-Jul-14 09:00N 38°39' W 009°06'1 1.5
2018-Jul-14 08:30N 38°39' W 009°05'0 0.0
2018-Jul-13 20:10N 38°39' W 009°05'210.6
2018-Jul-13 20:01N 38°40' W 009°07'1 1.3
2018-Jul-13 19:31N 38°40' W 009°07'2 4.8
2018-Jul-13 19:00N 38°39' W 009°05'2 4.2
2018-Jul-13 18:30N 38°40' W 009°07'1 1.8
2018-Jul-13 18:00N 38°40' W 009°06'3 6.2
2018-Jul-13 17:30N 38°42' W 009°08'4 8.5
2018-Jul-13 17:00N 38°39' W 009°05'4 8.1
2018-Jul-13 16:31N 38°42' W 009°08'2 4.5
2018-Jul-13 16:00N 38°40' W 009°07'1 1.6
2018-Jul-13 15:31N 38°41' W 009°07'3 5.4
2018-Jul-13 15:01N 38°39' W 009°05'3 3.2
2018-Jul-13 14:00N 38°41' W 009°08'2 4.7
2018-Jul-13 13:31N 38°39' W 009°06'3 5.6
2018-Jul-13 13:00N 38°42' W 009°08'3 6.1
2018-Jul-13 12:30N 38°39' W 009°06'1 0.3
2018-Jul-13 10:27N 38°39' W 009°05'0 0.2
2018-Jul-13 10:00N 38°39' W 009°05'3 6.9
2018-Jul-13 09:30N 38°42' W 009°08'3 6.5
2018-Jul-13 09:00N 38°39' W 009°05'0 0.6
2018-Jul-13 08:31N 38°39' W 009°05'4 7.7
2018-Jul-13 08:00N 38°42' W 009°08'2 3.9
2018-Jul-13 07:30N 38°40' W 009°07'1 2.6
2018-Jul-13 07:00N 38°39' W 009°06'3 6.9
2018-Jul-13 06:31N 38°42' W 009°08'4 8.3
2018-Jul-13 06:00N 38°39' W 009°05'4 7.7
2018-Jul-13 05:31N 38°42' W 009°08'3 6.9
2018-Jul-13 05:00N 38°39' W 009°05'4 7.5
2018-Jul-13 04:31N 38°42' W 009°08'4 8.1
2018-Jul-13 04:00N 38°39' W 009°05'0 0.0
2018-Jul-13 01:22N 38°39' W 009°05'411.5
2018-Jul-13 01:00N 38°42' W 009°08'4 8.4
2018-Jul-13 00:30N 38°39' W 009°05'4 8.3
2018-Jul-13 00:00N 38°42' W 009°08'4 8.3
2018-Jul-12 23:30N 38°39' W 009°05'4 8.3
2018-Jul-12 23:00N 38°42' W 009°08'4 8.3
2018-Jul-12 22:30N 38°39' W 009°05'3 6.3
2018-Jul-12 22:01N 38°41' W 009°08'2 4.7
2018-Jul-12 21:30N 38°39' W 009°06'3 5.2
2018-Jul-12 21:00N 38°41' W 009°08'3 5.1
2018-Jul-12 20:30N 38°39' W 009°06'1 1.9
2018-Jul-12 20:00N 38°39' W 009°05'0 0.0
2018-Jul-12 19:30N 38°39' W 009°05'4 8.4
2018-Jul-12 19:01N 38°42' W 009°08'4 8.3
2018-Jul-12 18:30N 38°39' W 009°05'3 7.0
2018-Jul-12 18:00N 38°42' W 009°08'2 3.2
2018-Jul-12 17:31N 38°40' W 009°07'2 3.1
2018-Jul-12 17:00N 38°39' W 009°06'4 7.4
2018-Jul-12 16:31N 38°42' W 009°08'4 8.4
2018-Jul-12 16:00N 38°39' W 009°05'0 0.0
2018-Jul-12 12:39N 38°39' W 009°05'0 0.0
2018-Jul-12 12:31N 38°39' W 009°05'0 0.0
2018-Jul-12 12:00N 38°39' W 009°05'0 0.0
2018-Jul-12 11:30N 38°39' W 009°05'0 0.0
2018-Jul-12 11:01N 38°39' W 009°05'0 0.0
2018-Jul-12 10:30N 38°39' W 009°05'0 0.0
2018-Jul-12 10:00N 38°39' W 009°05'0 0.0
2018-Jul-12 09:30N 38°39' W 009°05'0 0.0
2018-Jul-12 09:00N 38°39' W 009°05'0 0.0
2018-Jul-12 08:31N 38°39' W 009°05'3 6.4
2018-Jul-12 08:00N 38°41' W 009°08'3 6.7
2018-Jul-12 07:30N 38°39' W 009°05'4 8.4
2018-Jul-12 07:00N 38°42' W 009°08'4 8.3
2018-Jul-12 06:30N 38°39' W 009°05'3 6.9
2018-Jul-12 06:01N 38°42' W 009°08'3 6.7
2018-Jul-12 05:30N 38°39' W 009°05'0 0.0
2018-Jul-11 19:59N 38°39' W 009°05'0 0.2
2018-Jul-11 19:30N 38°39' W 009°05'0 0.0
2018-Jul-11 19:00N 38°39' W 009°05'4 8.1
2018-Jul-11 18:30N 38°42' W 009°08'4 8.3
2018-Jul-11 18:00N 38°39' W 009°05'4 7.9
2018-Jul-11 17:31N 38°42' W 009°08'2 4.3
2018-Jul-11 17:00N 38°40' W 009°07'2 3.7
2018-Jul-11 16:27N 38°39' W 009°05'4 9.4
2018-Jul-11 16:00N 38°42' W 009°08'4 8.2
2018-Jul-11 15:30N 38°39' W 009°05'3 6.8
2018-Jul-11 15:01N 38°41' W 009°08'3 5.3
2018-Jul-11 14:31N 38°39' W 009°06'1 1.6
2018-Jul-11 14:00N 38°39' W 009°05'0 0.0
2018-Jul-11 09:56N 38°39' W 009°05'0 0.2
2018-Jul-11 09:30N 38°39' W 009°05'3 6.8
2018-Jul-11 09:00N 38°42' W 009°08'3 5.5
2018-Jul-11 08:31N 38°39' W 009°06'1 1.7
2018-Jul-11 08:00N 38°40' W 009°07'1 1.4
2018-Jul-11 07:30N 38°39' W 009°06'3 6.8
2018-Jul-11 07:00N 38°42' W 009°08'4 8.3
2018-Jul-11 06:30N 38°39' W 009°05'4 8.2
2018-Jul-11 06:00N 38°42' W 009°08'4 8.4
2018-Jul-11 05:30N 38°39' W 009°05'4 7.4
2018-Jul-11 05:00N 38°42' W 009°08'4 7.4
2018-Jul-11 04:30N 38°39' W 009°05'0 0.0
2018-Jul-11 04:00N 38°39' W 009°05'0 0.0
2018-Jul-11 03:30N 38°39' W 009°05'0 0.0
2018-Jul-11 03:00N 38°39' W 009°05'0 0.0
2018-Jul-11 02:30N 38°39' W 009°05'0 0.0
2018-Jul-11 02:00N 38°39' W 009°05'0 0.0
2018-Jul-11 01:30N 38°39' W 009°05'0 0.0
2018-Jul-11 01:00N 38°39' W 009°05'0 0.0
2018-Jul-11 00:30N 38°39' W 009°05'0 0.0
2018-Jul-11 00:00N 38°39' W 009°05'0 0.0
2018-Jul-10 23:30N 38°39' W 009°05'0 0.0
2018-Jul-10 22:58N 38°39' W 009°05'4 9.0
2018-Jul-10 22:31N 38°42' W 009°08'4 8.3
2018-Jul-10 22:00N 38°39' W 009°05'4 8.3
2018-Jul-10 21:30N 38°42' W 009°08'4 8.3
2018-Jul-10 21:00N 38°39' W 009°05'4 7.3
2018-Jul-10 20:30N 38°42' W 009°08'  
Track history (hours):
 
Tides and Currents Weather Stations Pressure Air Temp Water Temp Dewpoint Dewpoint Depression Visibility Wind Speed Wind Dir Waves Ship Positions

Antero De Quental

Last reported at 2018-Jul-20 20:21 UTC. Time now 2018-Jul-22 00:40 UTC.
Position N 38°39' W 009°05'.

Length 49 m; draft 1.9 m.

Type: Passenger vessel. MMSI: 263701460.

Date/timePositionNaut miles runAvg speedWind from/ knotsBaromVisibWave heightAir tempDewpointWater temp
2018-Jul-20 20:21N 38°39' W 009°05'2 6.7
2018-Jul-20 20:00N 38°40' W 009°07'0 0.3
2018-Jul-20 19:31N 38°40' W 009°07'2 4.6
2018-Jul-20 19:00N 38°39' W 009°05'2 3.9
2018-Jul-20 18:30N 38°40' W 009°07'1 1.6
2018-Jul-20 18:00N 38°40' W 009°06'3 6.5
2018-Jul-20 17:30N 38°42' W 009°08'4 8.3
2018-Jul-20 17:00N 38°39' W 009°05'3 6.9
2018-Jul-20 16:30N 38°42' W 009°08'2 3.6
2018-Jul-20 16:00N 38°40' W 009°07'0 0.8
2018-Jul-20 15:30N 38°40' W 009°07'2 4.7
2018-Jul-20 15:01N 38°39' W 009°05'0 0.0
2018-Jul-20 14:31N 38°39' W 009°05'3 6.4
2018-Jul-20 14:00N 38°41' W 009°08'2 4.8
2018-Jul-20 13:30N 38°39' W 009°06'3 5.0
2018-Jul-20 13:00N 38°41' W 009°08'2 4.8
2018-Jul-20 12:30N 38°40' W 009°06'1 2.0
2018-Jul-20 12:01N 38°39' W 009°05'0 0.1
2018-Jul-20 11:31N 38°39' W 009°05'0 0.0
2018-Jul-20 11:01N 38°39' W 009°05'0 0.0
2018-Jul-20 10:30N 38°39' W 009°05'0 0.1
2018-Jul-20 10:01N 38°39' W 009°05'3 6.8
2018-Jul-20 09:30N 38°41' W 009°08'3 5.9
2018-Jul-20 09:00N 38°39' W 009°05'1 1.2
2018-Jul-20 08:31N 38°39' W 009°05'4 7.9
2018-Jul-20 08:00N 38°42' W 009°08'2 4.7
2018-Jul-20 07:31N 38°40' W 009°07'1 2.1
2018-Jul-20 07:00N 38°39' W 009°06'3 6.7
2018-Jul-20 06:30N 38°42' W 009°08'4 8.3
2018-Jul-20 06:00N 38°39' W 009°05'4 7.2
2018-Jul-20 05:30N 38°42' W 009°08'3 6.7
2018-Jul-20 05:01N 38°39' W 009°05'3 6.9
2018-Jul-20 04:30N 38°42' W 009°08'4 7.4
2018-Jul-20 04:01N 38°39' W 009°05'0 0.0
2018-Jul-20 01:24N 38°39' W 009°05'410.3
2018-Jul-20 01:00N 38°42' W 009°08'4 8.3
2018-Jul-20 00:30N 38°39' W 009°05'4 8.4
2018-Jul-20 00:00N 38°42' W 009°08'4 8.3
2018-Jul-19 23:30N 38°39' W 009°05'4 8.4
2018-Jul-19 23:00N 38°42' W 009°08'4 8.3
2018-Jul-19 22:31N 38°39' W 009°05'3 6.5
2018-Jul-19 22:00N 38°41' W 009°08'2 4.8
2018-Jul-19 21:30N 38°39' W 009°06'2 4.9
2018-Jul-19 21:01N 38°42' W 009°08'3 5.1
2018-Jul-19 20:31N 38°39' W 009°06'1 1.8
2018-Jul-19 19:59N 38°39' W 009°05'0 0.0
2018-Jul-19 19:30N 38°39' W 009°05'4 8.4
2018-Jul-19 19:01N 38°42' W 009°08'4 8.3
2018-Jul-19 18:30N 38°39' W 009°05'3 6.9
2018-Jul-19 18:00N 38°42' W 009°08'2 3.9
2018-Jul-19 17:30N 38°40' W 009°07'1 2.2
2018-Jul-19 17:01N 38°39' W 009°06'4 7.0
2018-Jul-19 16:30N 38°42' W 009°08'4 8.3
2018-Jul-19 16:00N 38°39' W 009°05'0 0.0
2018-Jul-19 08:47N 38°39' W 009°05'0 0.4
2018-Jul-19 08:30N 38°39' W 009°05'3 6.3
2018-Jul-19 08:00N 38°41' W 009°08'3 6.4
2018-Jul-19 07:30N 38°39' W 009°05'4 8.4
2018-Jul-19 07:00N 38°42' W 009°08'4 8.4
2018-Jul-19 06:31N 38°39' W 009°05'3 6.4
2018-Jul-19 06:01N 38°41' W 009°08'3 6.1
2018-Jul-19 05:30N 38°39' W 009°05'0 0.0
2018-Jul-18 20:34N 38°39' W 009°05'0 0.0
2018-Jul-18 20:30N 38°39' W 009°05'4 8.3
2018-Jul-18 20:01N 38°42' W 009°08'4 8.3
2018-Jul-18 19:31N 38°39' W 009°05'2 3.2
2018-Jul-18 19:00N 38°40' W 009°07'1 2.5
2018-Jul-18 18:30N 38°41' W 009°08'1 2.4
2018-Jul-18 18:01N 38°40' W 009°07'0 0.9
2018-Jul-18 17:31N 38°40' W 009°06'3 6.3
2018-Jul-18 17:00N 38°42' W 009°08'4 8.4
2018-Jul-18 16:30N 38°39' W 009°05'4 8.4
2018-Jul-18 16:00N 38°42' W 009°08'4 7.5
2018-Jul-18 15:30N 38°39' W 009°06'2 4.4
2018-Jul-18 15:00N 38°41' W 009°07'3 5.5
2018-Jul-18 14:30N 38°39' W 009°05'0 0.0
2018-Jul-18 12:23N 38°39' W 009°05'411.0
2018-Jul-18 12:00N 38°42' W 009°08'4 8.3
2018-Jul-18 11:30N 38°39' W 009°05'1 0.7
2018-Jul-18 10:31N 38°39' W 009°06'1 1.2
2018-Jul-18 10:00N 38°39' W 009°05'0 0.0
2018-Jul-18 09:30N 38°39' W 009°05'4 8.0
2018-Jul-18 09:01N 38°42' W 009°08'4 8.0
2018-Jul-18 08:30N 38°39' W 009°05'4 8.5
2018-Jul-18 08:01N 38°42' W 009°08'4 7.9
2018-Jul-18 07:30N 38°39' W 009°05'2 4.0
2018-Jul-18 07:00N 38°40' W 009°07'0 0.7
2018-Jul-18 06:30N 38°40' W 009°07'1 2.6
2018-Jul-18 06:01N 38°39' W 009°06'1 1.1
2018-Jul-18 05:30N 38°39' W 009°05'0 0.0
2018-Jul-17 20:18N 38°39' W 009°05'2 6.5
2018-Jul-17 20:01N 38°40' W 009°07'1 1.3
2018-Jul-17 19:31N 38°40' W 009°08'3 5.0
2018-Jul-17 18:59N 38°39' W 009°05'2 4.2
2018-Jul-17 18:31N 38°40' W 009°07'1 1.4
2018-Jul-17 18:00N 38°40' W 009°06'3 6.1
2018-Jul-17 17:30N 38°42' W 009°08'4 8.3
2018-Jul-17 17:00N 38°39' W 009°05'4 7.4
2018-Jul-17 16:30N 38°42' W 009°08'2 4.2
2018-Jul-17 16:00N 38°40' W 009°07'1 1.5
2018-Jul-17 15:30N 38°41' W 009°07'3 5.2
2018-Jul-17 15:00N 38°39' W 009°05'0 0.0
2018-Jul-17 14:31N 38°39' W 009°05'3 6.7
2018-Jul-17 14:00N 38°41' W 009°08'2 5.0
2018-Jul-17 13:31N 38°39' W 009°06'2 4.8
2018-Jul-17 13:00N 38°41' W 009°08'3 5.6
2018-Jul-17 12:30N 38°39' W 009°05'1 1.1
2018-Jul-17 12:00N 38°39' W 009°05'0 0.0
2018-Jul-17 11:30N 38°39' W 009°05'0 0.0
2018-Jul-17 11:00N 38°39' W 009°05'0 0.0
2018-Jul-17 10:30N 38°39' W 009°05'0 0.0
2018-Jul-17 10:00N 38°39' W 009°05'3 6.8
2018-Jul-17 09:30N 38°42' W 009°08'3 5.4
2018-Jul-17 09:01N 38°39' W 009°06'1 1.9
2018-Jul-17 08:30N 38°39' W 009°05'4 8.2
2018-Jul-17 08:01N 38°42' W 009°08'2 4.5
2018-Jul-17 07:30N 38°40' W 009°07'1 2.3
2018-Jul-17 07:00N 38°39' W 009°06'3 6.7
2018-Jul-17 06:31N 38°42' W 009°08'4 8.3
2018-Jul-17 06:01N 38°39' W 009°05'3 6.7
2018-Jul-17 05:30N 38°41' W 009°08'3 6.1
2018-Jul-17 05:01N 38°39' W 009°05'3 6.7
2018-Jul-17 04:30N 38°42' W 009°08'4 7.3
2018-Jul-17 04:01N 38°39' W 009°05'0 0.0
2018-Jul-17 03:31N 38°39' W 009°05'0 0.0
2018-Jul-17 03:01N 38°39' W 009°05'0 0.0
2018-Jul-17 02:31N 38°39' W 009°05'0 0.0
2018-Jul-17 02:01N 38°39' W 009°05'0 0.0
2018-Jul-17 01:30N 38°39' W 009°05'4 8.4
2018-Jul-17 01:01N 38°42' W 009°08'4 8.1
2018-Jul-17 00:30N 38°39' W 009°05'0 0.0
2018-Jul-16 23:30N 38°39' W 009°05'4 8.3
2018-Jul-16 23:00N 38°42' W 009°08'4 8.3
2018-Jul-16 22:30N 38°39' W 009°05'3 6.7
2018-Jul-16 22:00N 38°41' W 009°08'2 4.9
2018-Jul-16 21:30N 38°39' W 009°06'2 4.8
2018-Jul-16 21:01N 38°41' W 009°08'2 4.8
2018-Jul-16 20:30N 38°39' W 009°06'1 2.0
2018-Jul-16 20:00N 38°39' W 009°05'0 0.0
2018-Jul-16 19:30N 38°39' W 009°05'4 8.4
2018-Jul-16 19:00N 38°42' W 009°08'4 8.3
2018-Jul-16 18:31N 38°39' W 009°05'4 7.6
2018-Jul-16 18:01N 38°42' W 009°08'2 4.5
2018-Jul-16 17:30N 38°40' W 009°07'1 1.6
2018-Jul-16 17:01N 38°40' W 009°06'3 6.1
2018-Jul-16 16:30N 38°42' W 009°08'4 8.6
2018-Jul-16 16:00N 38°39' W 009°05'0 0.0
2018-Jul-16 09:15N 38°39' W 009°05'0 0.4
2018-Jul-16 09:00N 38°39' W 009°05'0 0.1
2018-Jul-16 08:30N 38°39' W 009°05'4 7.8
2018-Jul-16 08:01N 38°42' W 009°08'2 4.3
2018-Jul-16 07:31N 38°40' W 009°07'1 1.9
2018-Jul-16 07:00N 38°40' W 009°06'3 6.6
2018-Jul-16 06:30N 38°42' W 009°08'4 8.3
2018-Jul-16 06:00N 38°39' W 009°05'4 7.1
2018-Jul-16 05:30N 38°42' W 009°08'4 7.1
2018-Jul-16 05:01N 38°39' W 009°05'4 7.5
2018-Jul-16 04:30N 38°42' W 009°08'4 7.6
2018-Jul-16 04:01N 38°39' W 009°05'0 0.0
2018-Jul-16 03:30N 38°39' W 009°05'0 0.0
2018-Jul-16 03:00N 38°39' W 009°05'0 0.0
2018-Jul-16 02:30N 38°39' W 009°05'0 0.0
2018-Jul-16 02:00N 38°39' W 009°05'0 0.0
2018-Jul-16 01:30N 38°39' W 009°05'4 8.3
2018-Jul-16 01:00N 38°42' W 009°08'4 8.3
2018-Jul-16 00:30N 38°39' W 009°05'4 8.3
2018-Jul-16 00:00N 38°42' W 009°08'4 8.3
2018-Jul-15 23:30N 38°39' W 009°05'4 8.3
2018-Jul-15 23:00N 38°42' W 009°08'4 8.3
2018-Jul-15 22:31N 38°39' W 009°05'3 6.6
2018-Jul-15 22:01N 38°41' W 009°08'2 4.8
2018-Jul-15 21:30N 38°39' W 009°06'3 5.3
2018-Jul-15 21:00N 38°42' W 009°08'2 4.9
2018-Jul-15 20:31N 38°40' W 009°06'2 4.7
2018-Jul-15 20:01N 38°41' W 009°08'3 5.1
2018-Jul-15 19:31N 38°39' W 009°06'1 1.8
2018-Jul-15 19:00N 38°39' W 009°05'3 6.4
2018-Jul-15 18:30N 38°41' W 009°08'2 4.4
2018-Jul-15 18:00N 38°40' W 009°06'3 5.1
2018-Jul-15 17:31N 38°42' W 009°08'3 5.1
2018-Jul-15 17:01N 38°40' W 009°06'2 4.6
2018-Jul-15 16:30N 38°41' W 009°08'3 4.9
2018-Jul-15 16:00N 38°39' W 009°06'3 6.0
2018-Jul-15 15:30N 38°42' W 009°08'3 5.7
2018-Jul-15 15:00N 38°39' W 009°06'3 5.9
2018-Jul-15 14:31N 38°42' W 009°08'3 6.5
2018-Jul-15 14:00N 38°39' W 009°05'0 0.9
2018-Jul-15 13:30N 38°39' W 009°05'0 0.0
2018-Jul-15 13:00N 38°39' W 009°05'0 0.0
2018-Jul-15 12:30N 38°39' W 009°05'3 6.5
2018-Jul-15 12:01N 38°41' W 009°08'3 5.2
2018-Jul-15 11:31N 38°39' W 009°06'3 6.1
2018-Jul-15 11:00N 38°42' W 009°08'3 6.6
2018-Jul-15 10:30N 38°39' W 009°05'0 0.9
2018-Jul-15 10:00N 38°39' W 009°05'0 0.0
2018-Jul-15 09:30N 38°39' W 009°05'0 0.0
2018-Jul-14 10:00N 38°39' W 009°05'3 6.4
2018-Jul-14 09:31N 38°41' W 009°08'2 5.0
2018-Jul-14 09:00N 38°39' W 009°06'1 1.5
2018-Jul-14 08:30N 38°39' W 009°05'0 0.0
2018-Jul-13 20:10N 38°39' W 009°05'210.6
2018-Jul-13 20:01N 38°40' W 009°07'1 1.3
2018-Jul-13 19:31N 38°40' W 009°07'2 4.8
2018-Jul-13 19:00N 38°39' W 009°05'2 4.2
2018-Jul-13 18:30N 38°40' W 009°07'1 1.8
2018-Jul-13 18:00N 38°40' W 009°06'3 6.2
2018-Jul-13 17:30N 38°42' W 009°08'4 8.5
2018-Jul-13 17:00N 38°39' W 009°05'4 8.1
2018-Jul-13 16:31N 38°42' W 009°08'2 4.5
2018-Jul-13 16:00N 38°40' W 009°07'1 1.6
2018-Jul-13 15:31N 38°41' W 009°07'3 5.4
2018-Jul-13 15:01N 38°39' W 009°05'3 3.2
2018-Jul-13 14:00N 38°41' W 009°08'2 4.7
2018-Jul-13 13:31N 38°39' W 009°06'3 5.6
2018-Jul-13 13:00N 38°42' W 009°08'3 6.1
2018-Jul-13 12:30N 38°39' W 009°06'1 0.3
2018-Jul-13 10:27N 38°39' W 009°05'0 0.2
2018-Jul-13 10:00N 38°39' W 009°05'3 6.9
2018-Jul-13 09:30N 38°42' W 009°08'3 6.5
2018-Jul-13 09:00N 38°39' W 009°05'0 0.6
2018-Jul-13 08:31N 38°39' W 009°05'4 7.7
2018-Jul-13 08:00N 38°42' W 009°08'2 3.9
2018-Jul-13 07:30N 38°40' W 009°07'1 2.6
2018-Jul-13 07:00N 38°39' W 009°06'3 6.9
2018-Jul-13 06:31N 38°42' W 009°08'4 8.3
2018-Jul-13 06:00N 38°39' W 009°05'4 7.7
2018-Jul-13 05:31N 38°42' W 009°08'3 6.9
2018-Jul-13 05:00N 38°39' W 009°05'4 7.5
2018-Jul-13 04:31N 38°42' W 009°08'4 8.1
2018-Jul-13 04:00N 38°39' W 009°05'0 0.0
2018-Jul-13 01:22N 38°39' W 009°05'411.5
2018-Jul-13 01:00N 38°42' W 009°08'4 8.4
2018-Jul-13 00:30N 38°39' W 009°05'4 8.3
2018-Jul-13 00:00N 38°42' W 009°08'4 8.3
2018-Jul-12 23:30N 38°39' W 009°05'4 8.3
2018-Jul-12 23:00N 38°42' W 009°08'4 8.3
2018-Jul-12 22:30N 38°39' W 009°05'3 6.3
2018-Jul-12 22:01N 38°41' W 009°08'2 4.7
2018-Jul-12 21:30N 38°39' W 009°06'3 5.2
2018-Jul-12 21:00N 38°41' W 009°08'3 5.1
2018-Jul-12 20:30N 38°39' W 009°06'1 1.9
2018-Jul-12 20:00N 38°39' W 009°05'0 0.0
2018-Jul-12 19:30N 38°39' W 009°05'4 8.4
2018-Jul-12 19:01N 38°42' W 009°08'4 8.3
2018-Jul-12 18:30N 38°39' W 009°05'3 7.0
2018-Jul-12 18:00N 38°42' W 009°08'2 3.2
2018-Jul-12 17:31N 38°40' W 009°07'2 3.1
2018-Jul-12 17:00N 38°39' W 009°06'4 7.4
2018-Jul-12 16:31N 38°42' W 009°08'4 8.4
2018-Jul-12 16:00N 38°39' W 009°05'0 0.0
2018-Jul-12 12:39N 38°39' W 009°05'0 0.0
2018-Jul-12 12:31N 38°39' W 009°05'0 0.0
2018-Jul-12 12:00N 38°39' W 009°05'0 0.0
2018-Jul-12 11:30N 38°39' W 009°05'0 0.0
2018-Jul-12 11:01N 38°39' W 009°05'0 0.0
2018-Jul-12 10:30N 38°39' W 009°05'0 0.0
2018-Jul-12 10:00N 38°39' W 009°05'0 0.0
2018-Jul-12 09:30N 38°39' W 009°05'0 0.0
2018-Jul-12 09:00N 38°39' W 009°05'0 0.0
2018-Jul-12 08:31N 38°39' W 009°05'3 6.4
2018-Jul-12 08:00N 38°41' W 009°08'3 6.7
2018-Jul-12 07:30N 38°39' W 009°05'4 8.4
2018-Jul-12 07:00N 38°42' W 009°08'4 8.3
2018-Jul-12 06:30N 38°39' W 009°05'3 6.9
2018-Jul-12 06:01N 38°42' W 009°08'3 6.7
2018-Jul-12 05:30N 38°39' W 009°05'0 0.0
2018-Jul-11 19:59N 38°39' W 009°05'0 0.2
2018-Jul-11 19:30N 38°39' W 009°05'0 0.0
2018-Jul-11 19:00N 38°39' W 009°05'4 8.1
2018-Jul-11 18:30N 38°42' W 009°08'4 8.3
2018-Jul-11 18:00N 38°39' W 009°05'4 7.9
2018-Jul-11 17:31N 38°42' W 009°08'2 4.3
2018-Jul-11 17:00N 38°40' W 009°07'2 3.7
2018-Jul-11 16:27N 38°39' W 009°05'4 9.4
2018-Jul-11 16:00N 38°42' W 009°08'4 8.2
2018-Jul-11 15:30N 38°39' W 009°05'3 6.8
2018-Jul-11 15:01N 38°41' W 009°08'3 5.3
2018-Jul-11 14:31N 38°39' W 009°06'1 1.6
2018-Jul-11 14:00N 38°39' W 009°05'0 0.0
2018-Jul-11 09:56N 38°39' W 009°05'0 0.2
2018-Jul-11 09:30N 38°39' W 009°05'3 6.8
2018-Jul-11 09:00N 38°42' W 009°08'3 5.5
2018-Jul-11 08:31N 38°39' W 009°06'1 1.7
2018-Jul-11 08:00N 38°40' W 009°07'1 1.4
2018-Jul-11 07:30N 38°39' W 009°06'3 6.8
2018-Jul-11 07:00N 38°42' W 009°08'4 8.3
2018-Jul-11 06:30N 38°39' W 009°05'4 8.2
2018-Jul-11 06:00N 38°42' W 009°08'4 8.4
2018-Jul-11 05:30N 38°39' W 009°05'4 7.4
2018-Jul-11 05:00N 38°42' W 009°08'4 7.4
2018-Jul-11 04:30N 38°39' W 009°05'0 0.0
2018-Jul-11 04:00N 38°39' W 009°05'0 0.0
2018-Jul-11 03:30N 38°39' W 009°05'0 0.0
2018-Jul-11 03:00N 38°39' W 009°05'0 0.0
2018-Jul-11 02:30N 38°39' W 009°05'0 0.0
2018-Jul-11 02:00N 38°39' W 009°05'0 0.0
2018-Jul-11 01:30N 38°39' W 009°05'0 0.0
2018-Jul-11 01:00N 38°39' W 009°05'0 0.0
2018-Jul-11 00:30N 38°39' W 009°05'0 0.0
2018-Jul-11 00:00N 38°39' W 009°05'0 0.0
2018-Jul-10 23:30N 38°39' W 009°05'0 0.0
2018-Jul-10 22:58N 38°39' W 009°05'4 9.0
2018-Jul-10 22:31N 38°42' W 009°08'4 8.3
2018-Jul-10 22:00N 38°39' W 009°05'4 8.3
2018-Jul-10 21:30N 38°42' W 009°08'4 8.3
2018-Jul-10 21:00N 38°39' W 009°05'4 7.3
2018-Jul-10 20:30N 38°42' W 009°08'  

Dump ship's entire track history